sensor_id;sensor_type;location;lat;lon;timestamp;pressure;altitude;pressure_sealevel;temperature;humidity
55990;BME280;41875;55.806;38.082;2023-12-04T06:46:24;98496.50;;;-7.54;83.51
55990;BME280;41875;55.806;38.082;2023-12-04T06:49:31;98501.34;;;-6.92;81.65
55990;BME280;41875;55.806;38.082;2023-12-04T06:52:39;98492.22;;;-7.16;81.62
55990;BME280;41875;55.806;38.082;2023-12-04T06:55:44;98500.75;;;-7.53;81.28
55990;BME280;41875;55.806;38.082;2023-12-04T06:58:48;98507.00;;;-7.02;81.12
55990;BME280;41875;55.806;38.082;2023-12-04T07:01:54;98496.13;;;-6.90;80.28
55990;BME280;41875;55.806;38.082;2023-12-04T07:04:59;98517.72;;;-6.75;79.66
55990;BME280;41875;55.806;38.082;2023-12-04T07:08:06;98527.34;;;-7.15;80.44
55990;BME280;41875;55.806;38.082;2023-12-04T07:11:10;98523.78;;;-7.13;80.87
55990;BME280;41875;55.806;38.082;2023-12-04T07:14:16;98541.91;;;-6.78;78.89
55990;BME280;41875;55.806;38.082;2023-12-04T07:17:22;98538.06;;;-6.88;78.65
55990;BME280;41875;55.806;38.082;2023-12-04T07:20:26;98535.00;;;-6.77;78.40
55990;BME280;41875;55.806;38.082;2023-12-04T07:23:30;98548.25;;;-6.67;77.75
55990;BME280;41875;55.806;38.082;2023-12-04T07:26:35;98547.13;;;-6.44;77.61
55990;BME280;41875;55.806;38.082;2023-12-04T07:29:40;98558.50;;;-7.02;78.94
55990;BME280;41875;55.806;38.082;2023-12-04T07:32:47;98558.53;;;-6.85;78.01
55990;BME280;41875;55.806;38.082;2023-12-04T07:35:51;98564.66;;;-6.51;77.76
55990;BME280;41875;55.806;38.082;2023-12-04T07:38:55;98589.06;;;-6.58;78.25
55990;BME280;41875;55.806;38.082;2023-12-04T07:41:59;98573.84;;;-6.82;76.67
55990;BME280;41875;55.806;38.082;2023-12-04T07:45:14;98588.13;;;-6.39;76.74
55990;BME280;41875;55.806;38.082;2023-12-04T07:48:20;98566.53;;;-6.54;76.08
55990;BME280;41875;55.806;38.082;2023-12-04T07:51:24;98587.94;;;-6.89;77.55
55990;BME280;41875;55.806;38.082;2023-12-04T07:54:30;98584.72;;;-6.57;75.76
55990;BME280;41875;55.806;38.082;2023-12-04T07:57:35;98598.88;;;-6.66;76.16
55990;BME280;41875;55.806;38.082;2023-12-04T08:00:42;98585.34;;;-6.89;77.21
55990;BME280;41875;55.806;38.082;2023-12-04T08:03:50;98593.25;;;-6.57;78.21
55990;BME280;41875;55.806;38.082;2023-12-04T08:06:55;98616.06;;;-6.30;76.03
55990;BME280;41875;55.806;38.082;2023-12-04T08:10:00;98616.44;;;-6.57;78.31
55990;BME280;41875;55.806;38.082;2023-12-04T08:13:21;98608.50;;;-6.70;77.69
55990;BME280;41875;55.806;38.082;2023-12-04T08:16:26;98612.91;;;-6.91;77.42
55990;BME280;41875;55.806;38.082;2023-12-04T08:19:36;98622.31;;;-6.72;77.84
55990;BME280;41875;55.806;38.082;2023-12-04T08:22:42;98620.84;;;-6.96;76.77
55990;BME280;41875;55.806;38.082;2023-12-04T08:25:47;98625.94;;;-6.57;76.14
55990;BME280;41875;55.806;38.082;2023-12-04T08:28:55;98618.03;;;-6.72;76.42
55990;BME280;41875;55.806;38.082;2023-12-04T08:32:00;98629.72;;;-6.84;77.02
55990;BME280;41875;55.806;38.082;2023-12-04T08:35:24;98635.44;;;-6.58;77.46
55990;BME280;41875;55.806;38.082;2023-12-04T08:38:30;98625.16;;;-6.60;75.95
55990;BME280;41875;55.806;38.082;2023-12-04T08:41:34;98633.34;;;-6.69;76.37
55990;BME280;41875;55.806;38.082;2023-12-04T08:44:49;98623.31;;;-6.75;78.30
55990;BME280;41875;55.806;38.082;2023-12-04T08:47:57;98612.13;;;-6.74;77.28
55990;BME280;41875;55.806;38.082;2023-12-04T08:51:05;98644.34;;;-6.65;76.15
55990;BME280;41875;55.806;38.082;2023-12-04T08:54:10;98648.31;;;-6.96;78.04
55990;BME280;41875;55.806;38.082;2023-12-04T08:57:19;98642.34;;;-6.97;77.36
55990;BME280;41875;55.806;38.082;2023-12-04T09:00:23;98673.56;;;-7.24;79.56
55990;BME280;41875;55.806;38.082;2023-12-04T09:03:28;98668.16;;;-7.17;79.09
55990;BME280;41875;55.806;38.082;2023-12-04T09:06:35;98665.78;;;-7.22;79.26
55990;BME280;41875;55.806;38.082;2023-12-04T09:09:43;98675.59;;;-6.92;77.71
55990;BME280;41875;55.806;38.082;2023-12-04T09:12:50;98682.41;;;-7.10;77.65
55990;BME280;41875;55.806;38.082;2023-12-04T09:16:11;98677.69;;;-7.00;77.61
55990;BME280;41875;55.806;38.082;2023-12-04T09:19:17;98675.78;;;-7.16;77.78
55990;BME280;41875;55.806;38.082;2023-12-04T09:22:25;98669.78;;;-6.96;76.99
55990;BME280;41875;55.806;38.082;2023-12-04T09:25:40;98682.16;;;-7.44;78.46
55990;BME280;41875;55.806;38.082;2023-12-04T09:28:44;98701.91;;;-7.05;78.43
55990;BME280;41875;55.806;38.082;2023-12-04T09:32:03;98677.88;;;-7.05;76.60
55990;BME280;41875;55.806;38.082;2023-12-04T09:35:11;98713.13;;;-6.67;76.00
55990;BME280;41875;55.806;38.082;2023-12-04T09:38:25;98716.81;;;-6.73;75.81
55990;BME280;41875;55.806;38.082;2023-12-04T09:41:32;98705.44;;;-6.88;76.05
55990;BME280;41875;55.806;38.082;2023-12-04T09:44:37;98711.31;;;-6.65;75.98
55990;BME280;41875;55.806;38.082;2023-12-04T09:47:42;98717.97;;;-7.39;78.13
55990;BME280;41875;55.806;38.082;2023-12-04T09:50:48;98699.84;;;-7.57;78.64
55990;BME280;41875;55.806;38.082;2023-12-04T09:53:57;98713.16;;;-7.07;78.18
55990;BME280;41875;55.806;38.082;2023-12-04T09:57:06;98713.78;;;-6.25;74.94
55990;BME280;41875;55.806;38.082;2023-12-04T10:00:12;98718.63;;;-6.94;76.64
55990;BME280;41875;55.806;38.082;2023-12-04T10:03:47;98717.28;;;-6.65;74.14
55990;BME280;41875;55.806;38.082;2023-12-04T10:06:52;98732.94;;;-6.50;73.97
55990;BME280;41875;55.806;38.082;2023-12-04T10:10:15;98735.09;;;-6.79;75.80
55990;BME280;41875;55.806;38.082;2023-12-04T10:13:59;98753.97;;;-6.79;74.94
55990;BME280;41875;55.806;38.082;2023-12-04T10:17:16;98737.16;;;-6.67;74.86
55990;BME280;41875;55.806;38.082;2023-12-04T10:20:27;98762.94;;;-6.87;75.46
55990;BME280;41875;55.806;38.082;2023-12-04T10:23:40;98741.44;;;-6.67;74.14
55990;BME280;41875;55.806;38.082;2023-12-04T10:26:56;98766.84;;;-6.40;73.61
55990;BME280;41875;55.806;38.082;2023-12-04T10:30:27;98749.81;;;-6.81;74.78
55990;BME280;41875;55.806;38.082;2023-12-04T10:33:38;98764.00;;;-6.34;73.43
55990;BME280;41875;55.806;38.082;2023-12-04T10:36:57;98782.59;;;-6.28;73.57
55990;BME280;41875;55.806;38.082;2023-12-04T10:40:10;98781.97;;;-6.14;73.23
55990;BME280;41875;55.806;38.082;2023-12-04T10:47:24;98799.47;;;-5.66;71.32
55990;BME280;41875;55.806;38.082;2023-12-04T10:50:37;98808.34;;;-6.08;72.29
55990;BME280;41875;55.806;38.082;2023-12-04T10:53:43;98799.72;;;-6.07;72.33
55990;BME280;41875;55.806;38.082;2023-12-04T10:56:49;98816.75;;;-5.86;71.19
55990;BME280;41875;55.806;38.082;2023-12-04T10:59:57;98813.31;;;-5.86;71.31
55990;BME280;41875;55.806;38.082;2023-12-04T11:07:50;98825.19;;;-6.38;70.61
55990;BME280;41875;55.806;38.082;2023-12-04T11:11:28;98835.75;;;-5.88;71.54
55990;BME280;41875;55.806;38.082;2023-12-04T11:14:41;98828.88;;;-6.24;71.86
55990;BME280;41875;55.806;38.082;2023-12-04T11:17:49;98815.09;;;-7.03;74.26
55990;BME280;41875;55.806;38.082;2023-12-04T11:20:56;98828.78;;;-6.23;73.58
55990;BME280;41875;55.806;38.082;2023-12-04T11:24:04;98835.63;;;-6.41;73.96
55990;BME280;41875;55.806;38.082;2023-12-04T11:27:09;98845.28;;;-6.46;73.18
55990;BME280;41875;55.806;38.082;2023-12-04T11:30:17;98833.94;;;-6.42;72.91
55990;BME280;41875;55.806;38.082;2023-12-04T11:33:21;98862.84;;;-6.54;74.20
55990;BME280;41875;55.806;38.082;2023-12-04T11:36:26;98854.13;;;-6.72;74.21
55990;BME280;41875;55.806;38.082;2023-12-04T11:39:35;98851.69;;;-6.55;74.47
55990;BME280;41875;55.806;38.082;2023-12-04T11:42:39;98868.78;;;-6.73;75.72
55990;BME280;41875;55.806;38.082;2023-12-04T11:45:44;98862.59;;;-6.90;76.46
55990;BME280;41875;55.806;38.082;2023-12-04T11:48:54;98845.16;;;-6.83;76.33
55990;BME280;41875;55.806;38.082;2023-12-04T11:52:08;98859.63;;;-6.80;75.84
55990;BME280;41875;55.806;38.082;2023-12-04T11:55:37;98874.19;;;-6.79;76.78
55990;BME280;41875;55.806;38.082;2023-12-04T11:58:44;98865.38;;;-6.94;77.44
55990;BME280;41875;55.806;38.082;2023-12-04T12:01:50;98895.63;;;-6.99;77.65
55990;BME280;41875;55.806;38.082;2023-12-04T12:04:56;98897.31;;;-6.78;77.34
55990;BME280;41875;55.806;38.082;2023-12-04T12:08:02;98900.50;;;-6.72;76.87
55990;BME280;41875;55.806;38.082;2023-12-04T12:11:08;98897.69;;;-6.26;75.18
55990;BME280;41875;55.806;38.082;2023-12-04T12:14:12;98886.03;;;-6.54;75.25
55990;BME280;41875;55.806;38.082;2023-12-04T12:17:16;98899.44;;;-6.67;75.19
55990;BME280;41875;55.806;38.082;2023-12-04T12:20:21;98891.69;;;-6.87;76.99
55990;BME280;41875;55.806;38.082;2023-12-04T12:23:27;98903.59;;;-6.64;76.40
55990;BME280;41875;55.806;38.082;2023-12-04T12:26:33;98917.97;;;-6.79;76.46
55990;BME280;41875;55.806;38.082;2023-12-04T12:29:39;98922.22;;;-6.78;77.51
55990;BME280;41875;55.806;38.082;2023-12-04T12:32:43;98924.22;;;-6.85;77.56
55990;BME280;41875;55.806;38.082;2023-12-04T12:35:47;98917.50;;;-6.68;77.23
55990;BME280;41875;55.806;38.082;2023-12-04T12:39:01;98927.75;;;-6.87;78.00
55990;BME280;41875;55.806;38.082;2023-12-04T12:42:10;98922.16;;;-6.97;78.56
55990;BME280;41875;55.806;38.082;2023-12-04T12:45:14;98936.00;;;-6.79;77.16
55990;BME280;41875;55.806;38.082;2023-12-04T12:48:18;98930.72;;;-6.55;76.72
55990;BME280;41875;55.806;38.082;2023-12-04T12:51:23;98919.91;;;-6.84;77.06
55990;BME280;41875;55.806;38.082;2023-12-04T12:54:27;98926.06;;;-6.89;76.83
55990;BME280;41875;55.806;38.082;2023-12-04T12:57:36;98924.59;;;-6.94;77.17
55990;BME280;41875;55.806;38.082;2023-12-04T13:00:43;98922.94;;;-6.75;75.85
55990;BME280;41875;55.806;38.082;2023-12-04T13:03:47;98936.13;;;-6.62;75.56
55990;BME280;41875;55.806;38.082;2023-12-04T13:06:54;98933.75;;;-6.66;76.00
55990;BME280;41875;55.806;38.082;2023-12-04T13:09:58;98928.72;;;-6.69;75.19
55990;BME280;41875;55.806;38.082;2023-12-04T13:13:09;98941.41;;;-6.85;76.55
55990;BME280;41875;55.806;38.082;2023-12-04T13:16:13;98927.94;;;-6.71;76.12
55990;BME280;41875;55.806;38.082;2023-12-04T13:19:19;98939.16;;;-6.52;75.94
55990;BME280;41875;55.806;38.082;2023-12-04T13:22:23;98942.44;;;-6.48;75.99
55990;BME280;41875;55.806;38.082;2023-12-04T13:25:28;98937.50;;;-6.34;74.14
55990;BME280;41875;55.806;38.082;2023-12-04T13:28:34;98965.50;;;-6.45;74.90
55990;BME280;41875;55.806;38.082;2023-12-04T13:31:45;98965.75;;;-6.72;75.71
55990;BME280;41875;55.806;38.082;2023-12-04T13:34:53;98975.59;;;-6.40;75.28
55990;BME280;41875;55.806;38.082;2023-12-04T13:37:58;98957.47;;;-7.01;75.89
55990;BME280;41875;55.806;38.082;2023-12-04T13:41:04;98972.38;;;-6.66;74.27
55990;BME280;41875;55.806;38.082;2023-12-04T13:44:34;98968.34;;;-6.72;75.84
55990;BME280;41875;55.806;38.082;2023-12-04T13:47:38;98960.72;;;-6.96;75.88
55990;BME280;41875;55.806;38.082;2023-12-04T13:50:55;98972.50;;;-6.90;76.47
55990;BME280;41875;55.806;38.082;2023-12-04T13:54:34;98969.56;;;-7.03;75.46
55990;BME280;41875;55.806;38.082;2023-12-04T13:57:47;98984.81;;;-6.35;73.44
55990;BME280;41875;55.806;38.082;2023-12-04T14:01:14;98981.06;;;-7.12;76.79
55990;BME280;41875;55.806;38.082;2023-12-04T14:04:25;98977.41;;;-7.06;76.06
55990;BME280;41875;55.806;38.082;2023-12-04T14:07:31;98980.53;;;-6.98;76.07
55990;BME280;41875;55.806;38.082;2023-12-04T14:10:52;99002.63;;;-6.71;75.81
55990;BME280;41875;55.806;38.082;2023-12-04T14:13:57;98989.78;;;-6.51;73.78
55990;BME280;41875;55.806;38.082;2023-12-04T14:17:03;98998.88;;;-6.85;75.15
55990;BME280;41875;55.806;38.082;2023-12-04T14:20:10;99010.19;;;-6.67;74.92
55990;BME280;41875;55.806;38.082;2023-12-04T14:23:17;99012.50;;;-6.81;75.08
55990;BME280;41875;55.806;38.082;2023-12-04T14:26:22;99003.63;;;-7.41;77.19
55990;BME280;41875;55.806;38.082;2023-12-04T14:29:27;98995.81;;;-7.38;78.04
55990;BME280;41875;55.806;38.082;2023-12-04T14:32:42;99002.38;;;-7.08;77.84
55990;BME280;41875;55.806;38.082;2023-12-04T14:35:49;99002.84;;;-6.98;76.34
55990;BME280;41875;55.806;38.082;2023-12-04T14:39:56;99013.03;;;-7.17;77.13
55990;BME280;41875;55.806;38.082;2023-12-04T14:43:19;99011.47;;;-7.44;77.47
55990;BME280;41875;55.806;38.082;2023-12-04T14:46:26;99013.53;;;-7.08;76.10
55990;BME280;41875;55.806;38.082;2023-12-04T14:57:05;99028.06;;;-6.84;76.15
55990;BME280;41875;55.806;38.082;2023-12-04T15:00:51;99032.13;;;-6.79;75.06
55990;BME280;41875;55.806;38.082;2023-12-04T15:04:09;99039.97;;;-7.04;76.17
55990;BME280;41875;55.806;38.082;2023-12-04T15:07:39;99026.09;;;-6.78;75.68
55990;BME280;41875;55.806;38.082;2023-12-04T15:11:18;99050.19;;;-6.36;73.91
55990;BME280;41875;55.806;38.082;2023-12-04T15:14:48;99057.78;;;-6.76;74.39
55990;BME280;41875;55.806;38.082;2023-12-04T15:17:58;99036.38;;;-6.78;74.83
55990;BME280;41875;55.806;38.082;2023-12-04T15:21:31;99058.19;;;-7.09;76.97
55990;BME280;41875;55.806;38.082;2023-12-04T15:24:36;99057.28;;;-6.85;76.58
55990;BME280;41875;55.806;38.082;2023-12-04T15:27:42;99072.78;;;-6.65;76.01
55990;BME280;41875;55.806;38.082;2023-12-04T15:30:47;99072.97;;;-6.92;76.61
55990;BME280;41875;55.806;38.082;2023-12-04T15:33:52;99055.63;;;-6.86;76.99
55990;BME280;41875;55.806;38.082;2023-12-04T15:37:04;99058.00;;;-6.82;76.85
55990;BME280;41875;55.806;38.082;2023-12-04T15:40:09;99058.50;;;-6.94;78.13
55990;BME280;41875;55.806;38.082;2023-12-04T15:43:21;99054.34;;;-6.33;74.96
55990;BME280;41875;55.806;38.082;2023-12-04T15:46:41;99079.06;;;-6.50;76.49
55990;BME280;41875;55.806;38.082;2023-12-04T15:49:45;99067.78;;;-6.90;77.25
55990;BME280;41875;55.806;38.082;2023-12-04T15:52:50;99081.75;;;-6.74;76.84
55990;BME280;41875;55.806;38.082;2023-12-04T15:55:53;99085.66;;;-6.65;77.27
55990;BME280;41875;55.806;38.082;2023-12-04T15:58:57;99071.06;;;-6.64;76.92
55990;BME280;41875;55.806;38.082;2023-12-04T16:02:06;99080.34;;;-7.05;78.84
55990;BME280;41875;55.806;38.082;2023-12-04T16:05:10;99086.16;;;-6.77;77.50
55990;BME280;41875;55.806;38.082;2023-12-04T16:08:15;99084.94;;;-6.46;76.89
55990;BME280;41875;55.806;38.082;2023-12-04T16:11:19;99092.03;;;-6.31;76.10
55990;BME280;41875;55.806;38.082;2023-12-04T16:14:23;99084.13;;;-6.69;76.40
55990;BME280;41875;55.806;38.082;2023-12-04T16:17:29;99090.06;;;-6.89;76.83
55990;BME280;41875;55.806;38.082;2023-12-04T16:20:33;99078.97;;;-6.69;76.41
55990;BME280;41875;55.806;38.082;2023-12-04T16:23:37;99091.66;;;-6.64;76.05
55990;BME280;41875;55.806;38.082;2023-12-04T16:26:41;99082.97;;;-6.84;76.59
55990;BME280;41875;55.806;38.082;2023-12-04T16:29:46;99100.00;;;-6.80;76.67
55990;BME280;41875;55.806;38.082;2023-12-04T16:32:51;99087.22;;;-7.05;77.46
55990;BME280;41875;55.806;38.082;2023-12-04T16:35:57;99105.03;;;-6.77;77.74
55990;BME280;41875;55.806;38.082;2023-12-04T16:39:03;99103.06;;;-6.70;76.91
55990;BME280;41875;55.806;38.082;2023-12-04T16:42:10;99106.28;;;-6.65;76.39
55990;BME280;41875;55.806;38.082;2023-12-04T16:45:14;99098.63;;;-6.89;76.67
55990;BME280;41875;55.806;38.082;2023-12-04T16:48:20;99107.28;;;-7.37;78.77
55990;BME280;41875;55.806;38.082;2023-12-04T16:51:24;99104.56;;;-7.10;78.21
55990;BME280;41875;55.806;38.082;2023-12-04T16:54:30;99120.97;;;-6.89;78.17
55990;BME280;41875;55.806;38.082;2023-12-04T16:57:33;99121.69;;;-6.63;76.65
55990;BME280;41875;55.806;38.082;2023-12-04T17:00:44;99111.88;;;-6.53;75.42
55990;BME280;41875;55.806;38.082;2023-12-04T17:03:58;99118.56;;;-6.71;76.38
55990;BME280;41875;55.806;38.082;2023-12-04T17:07:02;99135.06;;;-6.53;75.16
55990;BME280;41875;55.806;38.082;2023-12-04T17:10:15;99122.28;;;-6.79;75.84
55990;BME280;41875;55.806;38.082;2023-12-04T17:13:21;99129.31;;;-7.06;76.50
55990;BME280;41875;55.806;38.082;2023-12-04T17:16:30;99129.09;;;-7.24;76.75
55990;BME280;41875;55.806;38.082;2023-12-04T17:19:37;99135.25;;;-7.28;77.07
55990;BME280;41875;55.806;38.082;2023-12-04T17:22:41;99145.22;;;-7.68;78.25
55990;BME280;41875;55.806;38.082;2023-12-04T17:25:46;99151.03;;;-7.62;78.02
55990;BME280;41875;55.806;38.082;2023-12-04T17:28:55;99151.94;;;-7.63;78.59
55990;BME280;41875;55.806;38.082;2023-12-04T17:32:00;99146.38;;;-7.76;79.17
55990;BME280;41875;55.806;38.082;2023-12-04T17:35:07;99147.34;;;-7.79;78.72
55990;BME280;41875;55.806;38.082;2023-12-04T17:38:15;99155.88;;;-7.53;78.00
55990;BME280;41875;55.806;38.082;2023-12-04T17:41:21;99151.63;;;-7.54;78.24
55990;BME280;41875;55.806;38.082;2023-12-04T17:44:30;99148.78;;;-7.72;79.25
55990;BME280;41875;55.806;38.082;2023-12-04T17:47:35;99150.41;;;-7.44;78.80
55990;BME280;41875;55.806;38.082;2023-12-04T17:50:42;99163.25;;;-7.44;77.97
55990;BME280;41875;55.806;38.082;2023-12-04T17:53:47;99164.25;;;-6.99;75.93
55990;BME280;41875;55.806;38.082;2023-12-04T17:56:52;99153.44;;;-7.09;76.37
55990;BME280;41875;55.806;38.082;2023-12-04T18:00:00;99172.63;;;-6.94;76.78
55990;BME280;41875;55.806;38.082;2023-12-04T18:03:12;99173.59;;;-7.20;76.67
55990;BME280;41875;55.806;38.082;2023-12-04T18:06:26;99158.56;;;-7.82;78.89
55990;BME280;41875;55.806;38.082;2023-12-04T18:09:34;99175.81;;;-7.85;80.36
55990;BME280;41875;55.806;38.082;2023-12-04T18:12:39;99188.63;;;-7.58;79.64
55990;BME280;41875;55.806;38.082;2023-12-04T18:15:44;99175.50;;;-7.51;79.85
55990;BME280;41875;55.806;38.082;2023-12-04T18:18:48;99177.97;;;-7.22;78.70
55990;BME280;41875;55.806;38.082;2023-12-04T18:21:54;99191.97;;;-7.06;78.03
55990;BME280;41875;55.806;38.082;2023-12-04T18:24:58;99190.25;;;-6.59;75.29
55990;BME280;41875;55.806;38.082;2023-12-04T18:28:06;99194.44;;;-6.34;74.70
55990;BME280;41875;55.806;38.082;2023-12-04T18:31:13;99201.88;;;-6.49;74.39
55990;BME280;41875;55.806;38.082;2023-12-04T18:34:19;99203.66;;;-6.51;74.72
55990;BME280;41875;55.806;38.082;2023-12-04T18:37:31;99192.28;;;-6.45;73.74
55990;BME280;41875;55.806;38.082;2023-12-04T18:40:36;99203.84;;;-6.55;74.29
55990;BME280;41875;55.806;38.082;2023-12-04T18:43:41;99198.22;;;-6.43;73.98
55990;BME280;41875;55.806;38.082;2023-12-04T18:46:49;99202.53;;;-6.66;74.99
55990;BME280;41875;55.806;38.082;2023-12-04T18:50:02;99206.53;;;-6.59;75.10
55990;BME280;41875;55.806;38.082;2023-12-04T18:53:10;99193.97;;;-6.44;74.14
55990;BME280;41875;55.806;38.082;2023-12-04T18:56:16;99211.16;;;-6.45;74.91
55990;BME280;41875;55.806;38.082;2023-12-04T18:59:21;99198.13;;;-6.41;73.78
55990;BME280;41875;55.806;38.082;2023-12-04T19:02:25;99210.81;;;-6.35;74.28
55990;BME280;41875;55.806;38.082;2023-12-04T19:05:31;99212.81;;;-6.66;75.60
55990;BME280;41875;55.806;38.082;2023-12-04T19:08:37;99203.69;;;-6.75;75.03
55990;BME280;41875;55.806;38.082;2023-12-04T19:11:42;99205.09;;;-6.90;76.59
55990;BME280;41875;55.806;38.082;2023-12-04T19:14:46;99219.00;;;-6.48;74.55
55990;BME280;41875;55.806;38.082;2023-12-04T19:17:51;99217.50;;;-6.53;74.81
55990;BME280;41875;55.806;38.082;2023-12-04T19:20:57;99218.22;;;-6.50;74.43
55990;BME280;41875;55.806;38.082;2023-12-04T19:24:04;99220.31;;;-7.07;75.95
55990;BME280;41875;55.806;38.082;2023-12-04T19:27:08;99212.81;;;-6.90;76.47
55990;BME280;41875;55.806;38.082;2023-12-04T19:30:12;99216.50;;;-6.73;75.64
55990;BME280;41875;55.806;38.082;2023-12-04T19:33:18;99239.59;;;-6.70;75.83
55990;BME280;41875;55.806;38.082;2023-12-04T19:36:29;99225.53;;;-6.61;74.88
55990;BME280;41875;55.806;38.082;2023-12-04T19:39:38;99234.94;;;-6.84;75.21
55990;BME280;41875;55.806;38.082;2023-12-04T19:42:43;99227.88;;;-7.02;76.54
55990;BME280;41875;55.806;38.082;2023-12-04T19:45:47;99214.09;;;-7.01;76.33
55990;BME280;41875;55.806;38.082;2023-12-04T19:48:51;99221.59;;;-7.19;76.28
55990;BME280;41875;55.806;38.082;2023-12-04T19:51:55;99224.28;;;-7.47;78.19
55990;BME280;41875;55.806;38.082;2023-12-04T19:55:01;99231.41;;;-7.56;77.83
55990;BME280;41875;55.806;38.082;2023-12-04T19:58:05;99236.16;;;-7.43;78.23
55990;BME280;41875;55.806;38.082;2023-12-04T20:01:09;99234.38;;;-7.41;76.75
55990;BME280;41875;55.806;38.082;2023-12-04T20:04:14;99225.84;;;-7.69;77.47
55990;BME280;41875;55.806;38.082;2023-12-04T20:07:19;99244.13;;;-7.78;77.56
55990;BME280;41875;55.806;38.082;2023-12-04T20:10:25;99243.56;;;-8.13;79.09
55990;BME280;41875;55.806;38.082;2023-12-04T20:13:29;99237.31;;;-8.06;78.65
55990;BME280;41875;55.806;38.082;2023-12-04T20:16:33;99233.69;;;-7.99;77.37
55990;BME280;41875;55.806;38.082;2023-12-04T20:20:21;99240.75;;;-8.05;77.89
55990;BME280;41875;55.806;38.082;2023-12-04T20:24:18;99252.59;;;-8.01;77.10
55990;BME280;41875;55.806;38.082;2023-12-04T20:27:35;99251.34;;;-7.88;76.95
55990;BME280;41875;55.806;38.082;2023-12-04T20:35:37;99252.31;;;-7.92;76.04
55990;BME280;41875;55.806;38.082;2023-12-04T20:38:42;99254.66;;;-7.84;75.46
55990;BME280;41875;55.806;38.082;2023-12-04T20:41:46;99250.22;;;-7.81;75.49
55990;BME280;41875;55.806;38.082;2023-12-04T20:44:52;99272.19;;;-7.97;75.65
55990;BME280;41875;55.806;38.082;2023-12-04T20:47:56;99273.31;;;-8.06;76.00
55990;BME280;41875;55.806;38.082;2023-12-04T20:51:00;99270.16;;;-8.16;76.92
55990;BME280;41875;55.806;38.082;2023-12-04T20:54:04;99273.50;;;-8.12;77.57
55990;BME280;41875;55.806;38.082;2023-12-04T20:57:08;99278.00;;;-8.19;76.98
55990;BME280;41875;55.806;38.082;2023-12-04T21:00:16;99284.06;;;-8.21;77.54
55990;BME280;41875;55.806;38.082;2023-12-04T21:03:20;99274.84;;;-8.00;76.57
55990;BME280;41875;55.806;38.082;2023-12-04T21:06:24;99260.69;;;-7.85;75.84
55990;BME280;41875;55.806;38.082;2023-12-04T21:09:29;99270.22;;;-7.89;75.10
55990;BME280;41875;55.806;38.082;2023-12-04T21:12:35;99274.09;;;-7.75;74.31
55990;BME280;41875;55.806;38.082;2023-12-04T21:15:41;99278.44;;;-7.77;74.16
55990;BME280;41875;55.806;38.082;2023-12-04T21:18:46;99280.69;;;-7.95;76.11
55990;BME280;41875;55.806;38.082;2023-12-04T21:21:51;99260.53;;;-8.09;76.47
55990;BME280;41875;55.806;38.082;2023-12-04T21:24:58;99264.28;;;-8.19;75.45
55990;BME280;41875;55.806;38.082;2023-12-04T21:28:07;99286.25;;;-8.09;75.27
55990;BME280;41875;55.806;38.082;2023-12-04T21:31:12;99287.56;;;-8.24;75.76
55990;BME280;41875;55.806;38.082;2023-12-04T21:34:16;99279.19;;;-8.31;76.00
55990;BME280;41875;55.806;38.082;2023-12-04T21:37:21;99284.06;;;-8.21;75.65
55990;BME280;41875;55.806;38.082;2023-12-04T21:40:41;99277.94;;;-8.17;76.05
55990;BME280;41875;55.806;38.082;2023-12-04T21:43:48;99285.38;;;-8.38;75.97
55990;BME280;41875;55.806;38.082;2023-12-04T21:46:54;99285.09;;;-8.55;76.74
55990;BME280;41875;55.806;38.082;2023-12-04T21:49:58;99263.28;;;-8.44;76.61
55990;BME280;41875;55.806;38.082;2023-12-04T21:53:04;99281.94;;;-8.65;76.83
55990;BME280;41875;55.806;38.082;2023-12-04T21:56:09;99273.59;;;-8.74;77.16
55990;BME280;41875;55.806;38.082;2023-12-04T21:59:14;99271.81;;;-9.01;75.83
55990;BME280;41875;55.806;38.082;2023-12-04T22:02:32;99293.00;;;-9.28;77.71
55990;BME280;41875;55.806;38.082;2023-12-04T22:05:37;99302.13;;;-9.16;77.63
55990;BME280;41875;55.806;38.082;2023-12-04T22:08:42;99299.34;;;-9.41;75.96
55990;BME280;41875;55.806;38.082;2023-12-04T22:11:46;99301.38;;;-9.54;76.21
55990;BME280;41875;55.806;38.082;2023-12-04T22:14:50;99295.09;;;-9.77;75.17
55990;BME280;41875;55.806;38.082;2023-12-04T22:18:10;99296.78;;;-9.76;74.30
55990;BME280;41875;55.806;38.082;2023-12-04T22:21:14;99292.94;;;-9.96;73.54
55990;BME280;41875;55.806;38.082;2023-12-04T22:24:20;99286.47;;;-10.11;74.09
55990;BME280;41875;55.806;38.082;2023-12-04T22:27:24;99274.75;;;-10.21;76.03
55990;BME280;41875;55.806;38.082;2023-12-04T22:30:28;99293.47;;;-10.19;75.16
55990;BME280;41875;55.806;38.082;2023-12-04T22:33:34;99282.72;;;-10.35;74.43
55990;BME280;41875;55.806;38.082;2023-12-04T22:36:39;99284.53;;;-10.38;76.82
55990;BME280;41875;55.806;38.082;2023-12-04T22:39:43;99289.84;;;-10.10;77.20
55990;BME280;41875;55.806;38.082;2023-12-04T22:42:47;99290.59;;;-10.05;77.41
55990;BME280;41875;55.806;38.082;2023-12-04T22:45:53;99280.06;;;-10.30;77.14
55990;BME280;41875;55.806;38.082;2023-12-04T22:49:02;99290.06;;;-10.19;77.34
55990;BME280;41875;55.806;38.082;2023-12-04T22:52:06;99276.50;;;-10.24;75.33
55990;BME280;41875;55.806;38.082;2023-12-04T22:55:09;99288.97;;;-10.07;74.96
55990;BME280;41875;55.806;38.082;2023-12-04T22:58:16;99290.50;;;-10.00;74.55
55990;BME280;41875;55.806;38.082;2023-12-04T23:01:20;99289.84;;;-10.08;73.15
55990;BME280;41875;55.806;38.082;2023-12-04T23:04:29;99268.72;;;-10.20;74.25
55990;BME280;41875;55.806;38.082;2023-12-04T23:07:36;99278.72;;;-10.09;75.07
55990;BME280;41875;55.806;38.082;2023-12-04T23:10:40;99278.34;;;-10.30;73.86
55990;BME280;41875;55.806;38.082;2023-12-04T23:13:44;99282.06;;;-10.43;74.33
55990;BME280;41875;55.806;38.082;2023-12-04T23:16:48;99299.31;;;-10.51;75.06
55990;BME280;41875;55.806;38.082;2023-12-04T23:19:53;99289.94;;;-10.52;74.69
55990;BME280;41875;55.806;38.082;2023-12-04T23:22:59;99294.28;;;-10.56;73.48
55990;BME280;41875;55.806;38.082;2023-12-04T23:26:03;99295.94;;;-10.53;72.27
55990;BME280;41875;55.806;38.082;2023-12-04T23:29:11;99284.28;;;-10.67;71.92
55990;BME280;41875;55.806;38.082;2023-12-04T23:32:17;99287.03;;;-10.76;72.77